sensor_id;sensor_type;location;lat;lon;timestamp;temperature;humidity
8114;DHT22;4099;52.684;9.918;2023-12-28T00:01:45;7.80;99.90
8114;DHT22;4099;52.684;9.918;2023-12-28T00:06:47;7.90;99.90
8114;DHT22;4099;52.684;9.918;2023-12-28T00:11:50;8.00;99.90
8114;DHT22;4099;52.684;9.918;2023-12-28T00:16:51;8.00;99.90
8114;DHT22;4099;52.684;9.918;2023-12-28T00:21:53;8.00;99.90
8114;DHT22;4099;52.684;9.918;2023-12-28T00:26:56;7.90;99.90
8114;DHT22;4099;52.684;9.918;2023-12-28T00:31:58;7.90;99.90
8114;DHT22;4099;52.684;9.918;2023-12-28T00:37:00;8.10;99.90
8114;DHT22;4099;52.684;9.918;2023-12-28T00:42:04;8.10;99.90
8114;DHT22;4099;52.684;9.918;2023-12-28T00:47:05;8.20;99.90
8114;DHT22;4099;52.684;9.918;2023-12-28T00:52:08;8.40;99.90
8114;DHT22;4099;52.684;9.918;2023-12-28T00:57:11;8.50;99.90
8114;DHT22;4099;52.684;9.918;2023-12-28T01:02:13;8.20;99.90
8114;DHT22;4099;52.684;9.918;2023-12-28T01:07:17;8.10;99.90
8114;DHT22;4099;52.684;9.918;2023-12-28T01:12:21;8.20;99.90
8114;DHT22;4099;52.684;9.918;2023-12-28T01:17:23;8.00;99.90
8114;DHT22;4099;52.684;9.918;2023-12-28T01:22:24;8.10;99.90
8114;DHT22;4099;52.684;9.918;2023-12-28T01:27:27;8.10;99.90
8114;DHT22;4099;52.684;9.918;2023-12-28T01:32:29;8.20;99.90
8114;DHT22;4099;52.684;9.918;2023-12-28T01:37:31;8.20;99.90
8114;DHT22;4099;52.684;9.918;2023-12-28T01:42:35;8.30;99.90
8114;DHT22;4099;52.684;9.918;2023-12-28T01:47:37;8.40;99.90
8114;DHT22;4099;52.684;9.918;2023-12-28T01:52:39;8.40;99.90
8114;DHT22;4099;52.684;9.918;2023-12-28T01:57:43;8.40;99.90
8114;DHT22;4099;52.684;9.918;2023-12-28T02:02:46;8.50;99.90
8114;DHT22;4099;52.684;9.918;2023-12-28T02:07:49;8.50;99.90
8114;DHT22;4099;52.684;9.918;2023-12-28T02:12:54;8.60;99.90
8114;DHT22;4099;52.684;9.918;2023-12-28T02:18:00;8.50;99.90
8114;DHT22;4099;52.684;9.918;2023-12-28T02:23:03;8.70;99.90
8114;DHT22;4099;52.684;9.918;2023-12-28T02:28:07;8.80;99.90
8114;DHT22;4099;52.684;9.918;2023-12-28T02:33:15;8.70;99.90
8114;DHT22;4099;52.684;9.918;2023-12-28T02:38:20;8.80;99.90
8114;DHT22;4099;52.684;9.918;2023-12-28T02:43:26;8.80;99.90
8114;DHT22;4099;52.684;9.918;2023-12-28T02:48:27;8.80;99.90
8114;DHT22;4099;52.684;9.918;2023-12-28T02:53:29;8.90;99.90
8114;DHT22;4099;52.684;9.918;2023-12-28T02:58:32;8.90;99.90
8114;DHT22;4099;52.684;9.918;2023-12-28T03:03:34;8.90;99.90
8114;DHT22;4099;52.684;9.918;2023-12-28T03:08:36;8.90;99.90
8114;DHT22;4099;52.684;9.918;2023-12-28T03:13:39;8.80;99.90
8114;DHT22;4099;52.684;9.918;2023-12-28T03:18:42;8.80;99.90
8114;DHT22;4099;52.684;9.918;2023-12-28T03:23:44;8.70;99.90
8114;DHT22;4099;52.684;9.918;2023-12-28T03:28:47;8.70;99.90
8114;DHT22;4099;52.684;9.918;2023-12-28T03:33:48;8.80;99.90
8114;DHT22;4099;52.684;9.918;2023-12-28T03:38:50;8.90;99.90
8114;DHT22;4099;52.684;9.918;2023-12-28T03:43:53;8.90;99.90
8114;DHT22;4099;52.684;9.918;2023-12-28T03:48:55;8.90;99.90
8114;DHT22;4099;52.684;9.918;2023-12-28T03:53:57;8.80;99.90
8114;DHT22;4099;52.684;9.918;2023-12-28T03:59:00;8.70;99.90
8114;DHT22;4099;52.684;9.918;2023-12-28T04:04:02;8.70;99.90
8114;DHT22;4099;52.684;9.918;2023-12-28T04:09:04;8.70;99.90
8114;DHT22;4099;52.684;9.918;2023-12-28T04:14:07;8.60;99.90
8114;DHT22;4099;52.684;9.918;2023-12-28T04:19:09;8.60;99.90
8114;DHT22;4099;52.684;9.918;2023-12-28T04:24:11;8.60;99.90
8114;DHT22;4099;52.684;9.918;2023-12-28T04:29:15;8.60;99.90
8114;DHT22;4099;52.684;9.918;2023-12-28T04:34:16;8.50;99.90
8114;DHT22;4099;52.684;9.918;2023-12-28T04:39:19;8.50;99.90
8114;DHT22;4099;52.684;9.918;2023-12-28T04:44:22;8.60;99.90
8114;DHT22;4099;52.684;9.918;2023-12-28T04:49:23;8.60;99.90
8114;DHT22;4099;52.684;9.918;2023-12-28T04:54:25;8.40;99.90
8114;DHT22;4099;52.684;9.918;2023-12-28T04:59:29;8.50;99.90
8114;DHT22;4099;52.684;9.918;2023-12-28T05:04:31;8.60;99.90
8114;DHT22;4099;52.684;9.918;2023-12-28T05:09:32;8.70;99.90
8114;DHT22;4099;52.684;9.918;2023-12-28T05:14:37;8.70;99.90
8114;DHT22;4099;52.684;9.918;2023-12-28T05:19:38;8.70;99.90
8114;DHT22;4099;52.684;9.918;2023-12-28T05:24:40;8.80;99.90
8114;DHT22;4099;52.684;9.918;2023-12-28T05:29:43;8.70;99.90
8114;DHT22;4099;52.684;9.918;2023-12-28T05:34:45;8.60;99.90
8114;DHT22;4099;52.684;9.918;2023-12-28T05:39:46;8.70;99.90
8114;DHT22;4099;52.684;9.918;2023-12-28T05:44:49;8.90;99.90
8114;DHT22;4099;52.684;9.918;2023-12-28T05:49:51;8.90;99.90
8114;DHT22;4099;52.684;9.918;2023-12-28T05:54:53;9.10;99.90
8114;DHT22;4099;52.684;9.918;2023-12-28T05:59:57;9.10;99.90
8114;DHT22;4099;52.684;9.918;2023-12-28T06:04:59;9.20;99.90
8114;DHT22;4099;52.684;9.918;2023-12-28T06:10:00;9.20;99.90
8114;DHT22;4099;52.684;9.918;2023-12-28T06:15:04;9.10;99.90
8114;DHT22;4099;52.684;9.918;2023-12-28T06:20:07;9.10;99.90
8114;DHT22;4099;52.684;9.918;2023-12-28T06:25:11;9.10;99.90
8114;DHT22;4099;52.684;9.918;2023-12-28T06:30:15;9.20;99.90
8114;DHT22;4099;52.684;9.918;2023-12-28T06:35:16;9.20;99.90
8114;DHT22;4099;52.684;9.918;2023-12-28T06:40:19;9.10;99.90
8114;DHT22;4099;52.684;9.918;2023-12-28T06:45:22;9.10;99.90
8114;DHT22;4099;52.684;9.918;2023-12-28T06:50:28;9.20;99.90
8114;DHT22;4099;52.684;9.918;2023-12-28T06:55:30;9.20;99.90
8114;DHT22;4099;52.684;9.918;2023-12-28T07:00:33;9.30;99.90
8114;DHT22;4099;52.684;9.918;2023-12-28T07:05:35;9.40;99.90
8114;DHT22;4099;52.684;9.918;2023-12-28T07:10:37;9.30;99.90
8114;DHT22;4099;52.684;9.918;2023-12-28T07:15:40;9.30;99.90
8114;DHT22;4099;52.684;9.918;2023-12-28T07:20:41;9.50;99.90
8114;DHT22;4099;52.684;9.918;2023-12-28T07:25:43;9.60;99.90
8114;DHT22;4099;52.684;9.918;2023-12-28T07:30:46;9.60;99.90
8114;DHT22;4099;52.684;9.918;2023-12-28T07:35:48;9.80;99.90
8114;DHT22;4099;52.684;9.918;2023-12-28T07:40:50;9.80;99.90
8114;DHT22;4099;52.684;9.918;2023-12-28T07:45:53;9.80;99.90
8114;DHT22;4099;52.684;9.918;2023-12-28T07:50:55;9.80;99.90
8114;DHT22;4099;52.684;9.918;2023-12-28T07:55:57;9.90;99.90
8114;DHT22;4099;52.684;9.918;2023-12-28T08:01:00;9.90;99.90
8114;DHT22;4099;52.684;9.918;2023-12-28T08:06:02;9.90;99.90
8114;DHT22;4099;52.684;9.918;2023-12-28T08:11:04;9.90;99.90
8114;DHT22;4099;52.684;9.918;2023-12-28T08:16:07;9.90;99.90
8114;DHT22;4099;52.684;9.918;2023-12-28T08:21:09;10.00;99.90
8114;DHT22;4099;52.684;9.918;2023-12-28T08:26:11;10.00;99.90
8114;DHT22;4099;52.684;9.918;2023-12-28T08:31:14;10.00;99.90
8114;DHT22;4099;52.684;9.918;2023-12-28T08:36:15;10.00;99.90
8114;DHT22;4099;52.684;9.918;2023-12-28T08:41:18;10.10;99.90
8114;DHT22;4099;52.684;9.918;2023-12-28T08:46:22;10.10;99.90
8114;DHT22;4099;52.684;9.918;2023-12-28T08:51:25;10.20;99.90
8114;DHT22;4099;52.684;9.918;2023-12-28T08:56:26;10.20;99.90
8114;DHT22;4099;52.684;9.918;2023-12-28T09:01:29;10.10;99.90
8114;DHT22;4099;52.684;9.918;2023-12-28T09:06:31;10.10;99.90
8114;DHT22;4099;52.684;9.918;2023-12-28T09:11:33;10.20;99.90
8114;DHT22;4099;52.684;9.918;2023-12-28T09:16:36;10.20;99.90
8114;DHT22;4099;52.684;9.918;2023-12-28T09:21:39;10.20;99.90
8114;DHT22;4099;52.684;9.918;2023-12-28T09:26:41;10.20;99.90
8114;DHT22;4099;52.684;9.918;2023-12-28T09:31:45;10.30;99.90
8114;DHT22;4099;52.684;9.918;2023-12-28T09:36:48;10.40;99.90
8114;DHT22;4099;52.684;9.918;2023-12-28T09:41:55;10.40;99.90
8114;DHT22;4099;52.684;9.918;2023-12-28T09:47:01;10.30;99.90
8114;DHT22;4099;52.684;9.918;2023-12-28T09:52:06;10.30;99.90
8114;DHT22;4099;52.684;9.918;2023-12-28T09:57:08;10.30;99.90
8114;DHT22;4099;52.684;9.918;2023-12-28T10:02:12;10.30;99.90
8114;DHT22;4099;52.684;9.918;2023-12-28T10:07:13;10.30;99.90
8114;DHT22;4099;52.684;9.918;2023-12-28T10:12:15;10.30;99.90
8114;DHT22;4099;52.684;9.918;2023-12-28T10:17:18;10.40;99.90
8114;DHT22;4099;52.684;9.918;2023-12-28T10:22:20;10.40;99.90
8114;DHT22;4099;52.684;9.918;2023-12-28T10:27:22;10.60;99.90
8114;DHT22;4099;52.684;9.918;2023-12-28T10:32:25;10.70;99.90
8114;DHT22;4099;52.684;9.918;2023-12-28T10:37:27;10.90;99.90
8114;DHT22;4099;52.684;9.918;2023-12-28T10:42:31;11.00;99.90
8114;DHT22;4099;52.684;9.918;2023-12-28T10:47:37;11.00;99.90
8114;DHT22;4099;52.684;9.918;2023-12-28T10:52:39;11.20;99.90
8114;DHT22;4099;52.684;9.918;2023-12-28T10:57:50;11.10;99.90
8114;DHT22;4099;52.684;9.918;2023-12-28T11:03:02;11.10;99.90
8114;DHT22;4099;52.684;9.918;2023-12-28T11:08:05;11.00;99.90
8114;DHT22;4099;52.684;9.918;2023-12-28T11:13:08;11.00;99.90
8114;DHT22;4099;52.684;9.918;2023-12-28T11:18:11;11.00;99.90
8114;DHT22;4099;52.684;9.918;2023-12-28T11:23:14;11.00;99.90
8114;DHT22;4099;52.684;9.918;2023-12-28T11:28:16;11.00;99.90
8114;DHT22;4099;52.684;9.918;2023-12-28T11:33:19;11.00;99.90
8114;DHT22;4099;52.684;9.918;2023-12-28T11:38:20;11.00;99.90
8114;DHT22;4099;52.684;9.918;2023-12-28T11:43:22;11.00;99.90
8114;DHT22;4099;52.684;9.918;2023-12-28T11:48:26;11.10;99.90
8114;DHT22;4099;52.684;9.918;2023-12-28T11:53:28;11.10;99.90
8114;DHT22;4099;52.684;9.918;2023-12-28T11:58:30;11.10;99.90
8114;DHT22;4099;52.684;9.918;2023-12-28T12:03:34;11.10;99.90
8114;DHT22;4099;52.684;9.918;2023-12-28T12:08:36;11.10;99.90
8114;DHT22;4099;52.684;9.918;2023-12-28T12:13:38;11.00;99.90
8114;DHT22;4099;52.684;9.918;2023-12-28T12:18:42;11.00;99.90
8114;DHT22;4099;52.684;9.918;2023-12-28T12:23:44;11.00;99.90
8114;DHT22;4099;52.684;9.918;2023-12-28T12:28:46;11.00;99.90
8114;DHT22;4099;52.684;9.918;2023-12-28T12:33:49;11.00;99.90
8114;DHT22;4099;52.684;9.918;2023-12-28T12:38:52;11.00;99.90
8114;DHT22;4099;52.684;9.918;2023-12-28T12:43:56;11.00;99.90
8114;DHT22;4099;52.684;9.918;2023-12-28T12:49:01;11.00;99.90
8114;DHT22;4099;52.684;9.918;2023-12-28T12:54:04;10.90;99.90
8114;DHT22;4099;52.684;9.918;2023-12-28T12:59:06;10.90;99.90
8114;DHT22;4099;52.684;9.918;2023-12-28T13:04:16;10.90;99.90
8114;DHT22;4099;52.684;9.918;2023-12-28T13:09:18;10.90;99.90
8114;DHT22;4099;52.684;9.918;2023-12-28T13:14:19;10.90;99.90
8114;DHT22;4099;52.684;9.918;2023-12-28T13:19:23;10.90;99.90
8114;DHT22;4099;52.684;9.918;2023-12-28T13:24:24;11.00;99.90
8114;DHT22;4099;52.684;9.918;2023-12-28T13:29:26;11.00;99.90
8114;DHT22;4099;52.684;9.918;2023-12-28T13:34:29;11.00;99.90
8114;DHT22;4099;52.684;9.918;2023-12-28T13:39:31;11.10;99.90
8114;DHT22;4099;52.684;9.918;2023-12-28T13:44:33;11.10;99.90
8114;DHT22;4099;52.684;9.918;2023-12-28T13:49:37;11.10;99.90
8114;DHT22;4099;52.684;9.918;2023-12-28T13:54:38;11.00;99.90
8114;DHT22;4099;52.684;9.918;2023-12-28T13:59:41;11.10;99.90
8114;DHT22;4099;52.684;9.918;2023-12-28T14:04:44;11.10;99.90
8114;DHT22;4099;52.684;9.918;2023-12-28T14:09:46;11.10;99.90
8114;DHT22;4099;52.684;9.918;2023-12-28T14:14:47;11.00;99.90
8114;DHT22;4099;52.684;9.918;2023-12-28T14:19:50;11.00;99.90
8114;DHT22;4099;52.684;9.918;2023-12-28T14:24:52;10.90;99.90
8114;DHT22;4099;52.684;9.918;2023-12-28T14:29:54;10.90;99.90
8114;DHT22;4099;52.684;9.918;2023-12-28T14:34:58;10.90;99.90
8114;DHT22;4099;52.684;9.918;2023-12-28T14:40:00;10.90;99.90
8114;DHT22;4099;52.684;9.918;2023-12-28T14:45:07;10.90;99.90
8114;DHT22;4099;52.684;9.918;2023-12-28T14:50:10;10.80;99.90
8114;DHT22;4099;52.684;9.918;2023-12-28T14:55:12;10.80;99.90
8114;DHT22;4099;52.684;9.918;2023-12-28T15:00:14;10.80;99.90
8114;DHT22;4099;52.684;9.918;2023-12-28T15:05:18;10.80;99.90
8114;DHT22;4099;52.684;9.918;2023-12-28T15:10:20;10.70;99.90
8114;DHT22;4099;52.684;9.918;2023-12-28T15:15:22;10.70;99.90
8114;DHT22;4099;52.684;9.918;2023-12-28T15:20:26;10.80;99.90
8114;DHT22;4099;52.684;9.918;2023-12-28T15:25:28;10.70;99.90
8114;DHT22;4099;52.684;9.918;2023-12-28T15:30:30;10.60;99.90
8114;DHT22;4099;52.684;9.918;2023-12-28T15:35:37;10.50;99.90
8114;DHT22;4099;52.684;9.918;2023-12-28T15:40:38;10.50;99.90
8114;DHT22;4099;52.684;9.918;2023-12-28T15:45:40;10.50;99.90
8114;DHT22;4099;52.684;9.918;2023-12-28T15:50:43;10.60;99.90
8114;DHT22;4099;52.684;9.918;2023-12-28T15:55:45;10.80;99.90
8114;DHT22;4099;52.684;9.918;2023-12-28T16:00:47;10.70;99.90
8114;DHT22;4099;52.684;9.918;2023-12-28T16:05:50;10.70;99.90
8114;DHT22;4099;52.684;9.918;2023-12-28T16:10:52;10.70;99.90
8114;DHT22;4099;52.684;9.918;2023-12-28T16:15:54;10.60;99.90
8114;DHT22;4099;52.684;9.918;2023-12-28T16:20:58;10.50;99.90
8114;DHT22;4099;52.684;9.918;2023-12-28T16:26:00;10.40;99.90
8114;DHT22;4099;52.684;9.918;2023-12-28T16:31:01;10.50;99.90
8114;DHT22;4099;52.684;9.918;2023-12-28T16:36:06;10.40;99.90
8114;DHT22;4099;52.684;9.918;2023-12-28T16:41:08;10.40;99.90
8114;DHT22;4099;52.684;9.918;2023-12-28T16:46:09;10.30;99.90
8114;DHT22;4099;52.684;9.918;2023-12-28T16:51:13;10.40;99.90
8114;DHT22;4099;52.684;9.918;2023-12-28T16:56:15;10.50;99.90
8114;DHT22;4099;52.684;9.918;2023-12-28T17:01:17;10.50;99.90
8114;DHT22;4099;52.684;9.918;2023-12-28T17:06:20;10.50;99.90
8114;DHT22;4099;52.684;9.918;2023-12-28T17:11:22;10.60;99.90
8114;DHT22;4099;52.684;9.918;2023-12-28T17:16:24;10.50;99.90
8114;DHT22;4099;52.684;9.918;2023-12-28T17:21:31;10.50;99.90
8114;DHT22;4099;52.684;9.918;2023-12-28T17:26:41;10.50;99.90
8114;DHT22;4099;52.684;9.918;2023-12-28T17:31:45;10.50;99.90
8114;DHT22;4099;52.684;9.918;2023-12-28T17:36:49;10.50;99.90
8114;DHT22;4099;52.684;9.918;2023-12-28T17:41:51;10.50;99.90
8114;DHT22;4099;52.684;9.918;2023-12-28T17:46:56;10.50;99.90
8114;DHT22;4099;52.684;9.918;2023-12-28T17:52:00;10.40;99.90
8114;DHT22;4099;52.684;9.918;2023-12-28T17:57:03;10.40;99.90
8114;DHT22;4099;52.684;9.918;2023-12-28T18:02:07;10.40;99.90
8114;DHT22;4099;52.684;9.918;2023-12-28T18:07:13;10.40;99.90
8114;DHT22;4099;52.684;9.918;2023-12-28T18:12:15;10.50;99.90
8114;DHT22;4099;52.684;9.918;2023-12-28T18:17:16;10.50;99.90
8114;DHT22;4099;52.684;9.918;2023-12-28T18:22:19;10.50;99.90
8114;DHT22;4099;52.684;9.918;2023-12-28T18:27:21;10.40;99.90
8114;DHT22;4099;52.684;9.918;2023-12-28T18:32:23;10.40;99.90
8114;DHT22;4099;52.684;9.918;2023-12-28T18:37:26;10.40;99.90
8114;DHT22;4099;52.684;9.918;2023-12-28T18:42:28;10.50;99.90
8114;DHT22;4099;52.684;9.918;2023-12-28T18:47:30;10.50;99.90
8114;DHT22;4099;52.684;9.918;2023-12-28T18:52:33;10.50;99.90
8114;DHT22;4099;52.684;9.918;2023-12-28T18:57:35;10.50;99.90
8114;DHT22;4099;52.684;9.918;2023-12-28T19:02:36;10.50;99.90
8114;DHT22;4099;52.684;9.918;2023-12-28T19:07:39;10.50;99.90
8114;DHT22;4099;52.684;9.918;2023-12-28T19:12:41;10.30;99.90
8114;DHT22;4099;52.684;9.918;2023-12-28T19:17:43;10.30;99.90
8114;DHT22;4099;52.684;9.918;2023-12-28T19:22:46;10.30;99.90
8114;DHT22;4099;52.684;9.918;2023-12-28T19:27:48;10.40;99.90
8114;DHT22;4099;52.684;9.918;2023-12-28T19:32:50;10.40;99.90
8114;DHT22;4099;52.684;9.918;2023-12-28T19:37:53;10.40;99.90
8114;DHT22;4099;52.684;9.918;2023-12-28T19:42:55;10.40;99.90
8114;DHT22;4099;52.684;9.918;2023-12-28T19:47:57;10.40;99.90
8114;DHT22;4099;52.684;9.918;2023-12-28T19:53:00;10.50;99.90
8114;DHT22;4099;52.684;9.918;2023-12-28T19:58:02;10.40;99.90
8114;DHT22;4099;52.684;9.918;2023-12-28T20:03:04;10.40;99.90
8114;DHT22;4099;52.684;9.918;2023-12-28T20:08:08;10.40;99.90
8114;DHT22;4099;52.684;9.918;2023-12-28T20:13:09;10.40;99.90
8114;DHT22;4099;52.684;9.918;2023-12-28T20:18:11;10.50;99.90
8114;DHT22;4099;52.684;9.918;2023-12-28T20:23:14;10.40;99.90
8114;DHT22;4099;52.684;9.918;2023-12-28T20:28:16;10.30;99.90
8114;DHT22;4099;52.684;9.918;2023-12-28T20:33:18;10.40;99.90
8114;DHT22;4099;52.684;9.918;2023-12-28T20:38:21;10.40;99.90
8114;DHT22;4099;52.684;9.918;2023-12-28T20:43:22;10.30;99.90
8114;DHT22;4099;52.684;9.918;2023-12-28T20:48:24;10.20;99.90
8114;DHT22;4099;52.684;9.918;2023-12-28T20:53:27;10.10;99.90
8114;DHT22;4099;52.684;9.918;2023-12-28T20:58:29;10.20;99.90
8114;DHT22;4099;52.684;9.918;2023-12-28T21:03:31;10.30;99.90
8114;DHT22;4099;52.684;9.918;2023-12-28T21:08:37;10.40;99.90
8114;DHT22;4099;52.684;9.918;2023-12-28T21:13:38;10.30;99.90
8114;DHT22;4099;52.684;9.918;2023-12-28T21:18:40;10.40;99.90
8114;DHT22;4099;52.684;9.918;2023-12-28T21:23:43;10.30;99.90
8114;DHT22;4099;52.684;9.918;2023-12-28T21:28:46;10.40;99.90
8114;DHT22;4099;52.684;9.918;2023-12-28T21:33:47;10.40;99.90
8114;DHT22;4099;52.684;9.918;2023-12-28T21:38:50;10.40;99.90
8114;DHT22;4099;52.684;9.918;2023-12-28T21:43:52;10.40;99.90
8114;DHT22;4099;52.684;9.918;2023-12-28T21:48:54;10.40;99.90
8114;DHT22;4099;52.684;9.918;2023-12-28T21:53:57;10.40;99.90
8114;DHT22;4099;52.684;9.918;2023-12-28T21:58:59;10.40;99.90
8114;DHT22;4099;52.684;9.918;2023-12-28T22:04:01;10.40;99.90
8114;DHT22;4099;52.684;9.918;2023-12-28T22:09:04;10.30;99.90
8114;DHT22;4099;52.684;9.918;2023-12-28T22:14:07;10.40;99.90
8114;DHT22;4099;52.684;9.918;2023-12-28T22:19:09;10.40;99.90
8114;DHT22;4099;52.684;9.918;2023-12-28T22:24:12;10.30;99.90
8114;DHT22;4099;52.684;9.918;2023-12-28T22:29:14;10.30;99.90
8114;DHT22;4099;52.684;9.918;2023-12-28T22:34:15;10.30;99.90
8114;DHT22;4099;52.684;9.918;2023-12-28T22:39:18;10.40;99.90
8114;DHT22;4099;52.684;9.918;2023-12-28T22:44:20;10.40;99.90
8114;DHT22;4099;52.684;9.918;2023-12-28T22:49:22;10.30;99.90
8114;DHT22;4099;52.684;9.918;2023-12-28T22:54:25;10.30;99.90
8114;DHT22;4099;52.684;9.918;2023-12-28T22:59:27;10.30;99.90
8114;DHT22;4099;52.684;9.918;2023-12-28T23:04:28;10.40;99.90
8114;DHT22;4099;52.684;9.918;2023-12-28T23:09:32;10.30;99.90
8114;DHT22;4099;52.684;9.918;2023-12-28T23:14:33;10.30;99.90
8114;DHT22;4099;52.684;9.918;2023-12-28T23:19:35;10.30;99.90
8114;DHT22;4099;52.684;9.918;2023-12-28T23:24:40;10.30;99.90
8114;DHT22;4099;52.684;9.918;2023-12-28T23:29:41;10.40;99.90
8114;DHT22;4099;52.684;9.918;2023-12-28T23:34:43;10.30;99.90
8114;DHT22;4099;52.684;9.918;2023-12-28T23:39:47;10.40;99.90
8114;DHT22;4099;52.684;9.918;2023-12-28T23:44:48;10.40;99.90
8114;DHT22;4099;52.684;9.918;2023-12-28T23:49:50;10.40;99.90
8114;DHT22;4099;52.684;9.918;2023-12-28T23:54:54;10.40;99.90
8114;DHT22;4099;52.684;9.918;2023-12-28T23:59:55;10.40;99.90
